sensor_id;sensor_type;location;lat;lon;timestamp;P1;durP1;ratioP1;P2;durP2;ratioP2
49101;SDS011;34913;47.520;19.186;2024-03-02T00:01:15;31.02;;;19.23;;
49101;SDS011;34913;47.520;19.186;2024-03-02T00:03:40;31.80;;;19.35;;
49101;SDS011;34913;47.520;19.186;2024-03-02T00:06:07;27.67;;;19.30;;
49101;SDS011;34913;47.520;19.186;2024-03-02T00:08:33;31.40;;;19.45;;
49101;SDS011;34913;47.520;19.186;2024-03-02T00:10:58;31.05;;;19.83;;
49101;SDS011;34913;47.520;19.186;2024-03-02T00:13:27;32.08;;;19.20;;
49101;SDS011;34913;47.520;19.186;2024-03-02T00:15:53;31.50;;;19.05;;
49101;SDS011;34913;47.520;19.186;2024-03-02T00:20:58;30.02;;;19.77;;
49101;SDS011;34913;47.520;19.186;2024-03-02T00:23:27;29.40;;;17.95;;
49101;SDS011;34913;47.520;19.186;2024-03-02T00:25:54;33.28;;;19.90;;
49101;SDS011;34913;47.520;19.186;2024-03-02T00:28:24;30.25;;;19.40;;
49101;SDS011;34913;47.520;19.186;2024-03-02T00:33:22;33.63;;;19.23;;
49101;SDS011;34913;47.520;19.186;2024-03-02T00:35:49;32.42;;;19.83;;
49101;SDS011;34913;47.520;19.186;2024-03-02T00:38:15;30.63;;;18.77;;
49101;SDS011;34913;47.520;19.186;2024-03-02T00:40:44;31.88;;;19.98;;
49101;SDS011;34913;47.520;19.186;2024-03-02T00:46:07;33.70;;;19.70;;
49101;SDS011;34913;47.520;19.186;2024-03-02T00:48:33;30.88;;;19.10;;
49101;SDS011;34913;47.520;19.186;2024-03-02T00:51:01;28.85;;;19.20;;
49101;SDS011;34913;47.520;19.186;2024-03-02T00:53:30;29.60;;;19.55;;
49101;SDS011;34913;47.520;19.186;2024-03-02T00:55:57;29.80;;;19.10;;
49101;SDS011;34913;47.520;19.186;2024-03-02T00:58:23;29.05;;;18.63;;
49101;SDS011;34913;47.520;19.186;2024-03-02T01:00:49;31.08;;;17.90;;
49101;SDS011;34913;47.520;19.186;2024-03-02T01:03:15;32.00;;;18.98;;
49101;SDS011;34913;47.520;19.186;2024-03-02T01:05:43;31.33;;;19.38;;
49101;SDS011;34913;47.520;19.186;2024-03-02T01:08:09;31.02;;;18.73;;
49101;SDS011;34913;47.520;19.186;2024-03-02T01:10:35;28.60;;;17.77;;
49101;SDS011;34913;47.520;19.186;2024-03-02T01:13:00;29.00;;;18.10;;
49101;SDS011;34913;47.520;19.186;2024-03-02T01:15:25;30.00;;;18.25;;
49101;SDS011;34913;47.520;19.186;2024-03-02T01:17:51;26.98;;;17.90;;
49101;SDS011;34913;47.520;19.186;2024-03-02T01:20:16;28.48;;;18.10;;
49101;SDS011;34913;47.520;19.186;2024-03-02T01:22:42;27.98;;;17.70;;
49101;SDS011;34913;47.520;19.186;2024-03-02T01:25:08;29.10;;;17.83;;
49101;SDS011;34913;47.520;19.186;2024-03-02T01:27:34;28.23;;;18.00;;
49101;SDS011;34913;47.520;19.186;2024-03-02T01:29:59;27.38;;;18.05;;
49101;SDS011;34913;47.520;19.186;2024-03-02T01:32:25;31.02;;;17.88;;
49101;SDS011;34913;47.520;19.186;2024-03-02T01:34:50;28.75;;;18.23;;
49101;SDS011;34913;47.520;19.186;2024-03-02T01:37:15;26.58;;;17.45;;
49101;SDS011;34913;47.520;19.186;2024-03-02T01:39:41;26.27;;;17.60;;
49101;SDS011;34913;47.520;19.186;2024-03-02T01:42:06;27.35;;;17.60;;
49101;SDS011;34913;47.520;19.186;2024-03-02T01:44:31;26.85;;;17.40;;
49101;SDS011;34913;47.520;19.186;2024-03-02T01:46:57;26.08;;;16.90;;
49101;SDS011;34913;47.520;19.186;2024-03-02T01:49:22;28.38;;;17.58;;
49101;SDS011;34913;47.520;19.186;2024-03-02T01:51:48;29.58;;;18.77;;
49101;SDS011;34913;47.520;19.186;2024-03-02T01:54:13;27.15;;;17.17;;
49101;SDS011;34913;47.520;19.186;2024-03-02T01:56:39;28.48;;;17.42;;
49101;SDS011;34913;47.520;19.186;2024-03-02T01:59:04;28.85;;;17.60;;
49101;SDS011;34913;47.520;19.186;2024-03-02T02:01:29;29.95;;;17.02;;
49101;SDS011;34913;47.520;19.186;2024-03-02T02:03:56;27.38;;;17.40;;
49101;SDS011;34913;47.520;19.186;2024-03-02T02:06:21;27.83;;;17.83;;
49101;SDS011;34913;47.520;19.186;2024-03-02T02:08:46;31.00;;;17.83;;
49101;SDS011;34913;47.520;19.186;2024-03-02T02:11:14;26.58;;;17.27;;
49101;SDS011;34913;47.520;19.186;2024-03-02T02:13:40;27.95;;;17.70;;
49101;SDS011;34913;47.520;19.186;2024-03-02T02:16:09;27.15;;;17.65;;
49101;SDS011;34913;47.520;19.186;2024-03-02T02:18:34;25.38;;;16.63;;
49101;SDS011;34913;47.520;19.186;2024-03-02T02:21:01;29.27;;;17.63;;
49101;SDS011;34913;47.520;19.186;2024-03-02T02:23:26;26.40;;;17.02;;
49101;SDS011;34913;47.520;19.186;2024-03-02T02:25:52;28.88;;;17.08;;
49101;SDS011;34913;47.520;19.186;2024-03-02T02:28:17;26.13;;;16.05;;
49101;SDS011;34913;47.520;19.186;2024-03-02T02:30:42;26.23;;;16.77;;
49101;SDS011;34913;47.520;19.186;2024-03-02T02:33:08;25.75;;;16.73;;
49101;SDS011;34913;47.520;19.186;2024-03-02T02:35:34;30.52;;;18.17;;
49101;SDS011;34913;47.520;19.186;2024-03-02T02:37:59;26.30;;;17.20;;
49101;SDS011;34913;47.520;19.186;2024-03-02T02:40:25;28.08;;;16.52;;
49101;SDS011;34913;47.520;19.186;2024-03-02T02:42:50;29.90;;;17.40;;
49101;SDS011;34913;47.520;19.186;2024-03-02T02:45:19;24.95;;;16.38;;
49101;SDS011;34913;47.520;19.186;2024-03-02T02:47:44;24.83;;;16.38;;
49101;SDS011;34913;47.520;19.186;2024-03-02T02:50:11;27.30;;;16.33;;
49101;SDS011;34913;47.520;19.186;2024-03-02T02:52:37;26.00;;;16.60;;
49101;SDS011;34913;47.520;19.186;2024-03-02T02:55:05;27.52;;;17.35;;
49101;SDS011;34913;47.520;19.186;2024-03-02T02:57:33;26.10;;;16.77;;
49101;SDS011;34913;47.520;19.186;2024-03-02T03:00:06;27.60;;;17.20;;
49101;SDS011;34913;47.520;19.186;2024-03-02T03:02:35;28.20;;;17.38;;
49101;SDS011;34913;47.520;19.186;2024-03-02T03:05:01;25.85;;;16.35;;
49101;SDS011;34913;47.520;19.186;2024-03-02T03:07:27;26.60;;;16.40;;
49101;SDS011;34913;47.520;19.186;2024-03-02T03:09:52;30.08;;;17.70;;
49101;SDS011;34913;47.520;19.186;2024-03-02T03:12:18;24.90;;;16.50;;
49101;SDS011;34913;47.520;19.186;2024-03-02T03:14:43;23.75;;;16.73;;
49101;SDS011;34913;47.520;19.186;2024-03-02T03:17:09;26.77;;;17.15;;
49101;SDS011;34913;47.520;19.186;2024-03-02T03:19:34;26.83;;;17.38;;
49101;SDS011;34913;47.520;19.186;2024-03-02T03:22:00;27.67;;;17.25;;
49101;SDS011;34913;47.520;19.186;2024-03-02T03:24:25;29.13;;;17.25;;
49101;SDS011;34913;47.520;19.186;2024-03-02T03:26:50;28.75;;;17.33;;
49101;SDS011;34913;47.520;19.186;2024-03-02T03:29:16;38.83;;;18.40;;
49101;SDS011;34913;47.520;19.186;2024-03-02T03:31:41;31.52;;;18.33;;
49101;SDS011;34913;47.520;19.186;2024-03-02T03:34:06;28.48;;;17.88;;
49101;SDS011;34913;47.520;19.186;2024-03-02T03:36:32;28.88;;;17.67;;
49101;SDS011;34913;47.520;19.186;2024-03-02T03:38:57;30.27;;;18.02;;
49101;SDS011;34913;47.520;19.186;2024-03-02T03:41:22;32.53;;;18.67;;
49101;SDS011;34913;47.520;19.186;2024-03-02T03:43:48;27.23;;;17.65;;
49101;SDS011;34913;47.520;19.186;2024-03-02T03:46:13;34.67;;;18.58;;
49101;SDS011;34913;47.520;19.186;2024-03-02T03:48:38;30.90;;;19.10;;
49101;SDS011;34913;47.520;19.186;2024-03-02T03:51:04;27.88;;;17.83;;
49101;SDS011;34913;47.520;19.186;2024-03-02T03:53:29;30.65;;;18.50;;
49101;SDS011;34913;47.520;19.186;2024-03-02T03:55:54;25.20;;;16.95;;
49101;SDS011;34913;47.520;19.186;2024-03-02T03:58:20;29.42;;;17.80;;
49101;SDS011;34913;47.520;19.186;2024-03-02T04:00:45;29.50;;;18.83;;
49101;SDS011;34913;47.520;19.186;2024-03-02T04:03:11;28.70;;;17.55;;
49101;SDS011;34913;47.520;19.186;2024-03-02T04:05:36;29.83;;;18.92;;
49101;SDS011;34913;47.520;19.186;2024-03-02T04:08:03;30.20;;;17.52;;
49101;SDS011;34913;47.520;19.186;2024-03-02T04:10:29;29.05;;;18.35;;
49101;SDS011;34913;47.520;19.186;2024-03-02T04:12:55;29.85;;;18.40;;
49101;SDS011;34913;47.520;19.186;2024-03-02T04:15:20;30.65;;;18.92;;
49101;SDS011;34913;47.520;19.186;2024-03-02T04:17:48;30.25;;;18.65;;
49101;SDS011;34913;47.520;19.186;2024-03-02T04:20:13;29.23;;;19.70;;
49101;SDS011;34913;47.520;19.186;2024-03-02T04:22:39;30.27;;;18.60;;
49101;SDS011;34913;47.520;19.186;2024-03-02T04:25:04;29.35;;;19.15;;
49101;SDS011;34913;47.520;19.186;2024-03-02T04:27:30;29.80;;;18.80;;
49101;SDS011;34913;47.520;19.186;2024-03-02T04:29:57;34.28;;;19.20;;
49101;SDS011;34913;47.520;19.186;2024-03-02T04:32:22;33.58;;;20.02;;
49101;SDS011;34913;47.520;19.186;2024-03-02T04:34:48;31.77;;;20.08;;
49101;SDS011;34913;47.520;19.186;2024-03-02T04:37:13;30.27;;;19.52;;
49101;SDS011;34913;47.520;19.186;2024-03-02T04:39:39;36.00;;;21.08;;
49101;SDS011;34913;47.520;19.186;2024-03-02T04:42:04;32.85;;;20.23;;
49101;SDS011;34913;47.520;19.186;2024-03-02T04:44:30;33.95;;;20.67;;
49101;SDS011;34913;47.520;19.186;2024-03-02T04:46:55;29.70;;;19.80;;
49101;SDS011;34913;47.520;19.186;2024-03-02T04:49:20;33.13;;;20.90;;
49101;SDS011;34913;47.520;19.186;2024-03-02T04:51:46;34.28;;;20.75;;
49101;SDS011;34913;47.520;19.186;2024-03-02T04:54:11;31.88;;;20.25;;
49101;SDS011;34913;47.520;19.186;2024-03-02T04:56:39;31.50;;;19.67;;
49101;SDS011;34913;47.520;19.186;2024-03-02T04:59:14;33.30;;;20.75;;
49101;SDS011;34913;47.520;19.186;2024-03-02T05:01:40;32.72;;;21.40;;
49101;SDS011;34913;47.520;19.186;2024-03-02T05:04:05;31.42;;;20.27;;
49101;SDS011;34913;47.520;19.186;2024-03-02T05:06:30;31.55;;;20.05;;
49101;SDS011;34913;47.520;19.186;2024-03-02T05:08:56;34.67;;;20.70;;
49101;SDS011;34913;47.520;19.186;2024-03-02T05:11:21;32.03;;;20.67;;
49101;SDS011;34913;47.520;19.186;2024-03-02T05:14:02;33.80;;;21.02;;
49101;SDS011;34913;47.520;19.186;2024-03-02T05:16:28;36.33;;;21.60;;
49101;SDS011;34913;47.520;19.186;2024-03-02T05:18:53;31.92;;;20.80;;
49101;SDS011;34913;47.520;19.186;2024-03-02T05:21:18;32.28;;;20.95;;
49101;SDS011;34913;47.520;19.186;2024-03-02T05:23:44;31.88;;;20.33;;
49101;SDS011;34913;47.520;19.186;2024-03-02T05:26:09;36.88;;;21.58;;
49101;SDS011;34913;47.520;19.186;2024-03-02T05:28:37;33.80;;;21.15;;
49101;SDS011;34913;47.520;19.186;2024-03-02T05:31:03;31.25;;;20.20;;
49101;SDS011;34913;47.520;19.186;2024-03-02T05:33:28;34.97;;;20.55;;
49101;SDS011;34913;47.520;19.186;2024-03-02T05:35:56;32.35;;;20.35;;
49101;SDS011;34913;47.520;19.186;2024-03-02T05:38:21;32.47;;;21.05;;
49101;SDS011;34913;47.520;19.186;2024-03-02T05:40:47;31.45;;;20.52;;
49101;SDS011;34913;47.520;19.186;2024-03-02T05:43:12;35.00;;;20.15;;
49101;SDS011;34913;47.520;19.186;2024-03-02T05:45:38;35.72;;;22.05;;
49101;SDS011;34913;47.520;19.186;2024-03-02T05:48:04;36.15;;;21.70;;
49101;SDS011;34913;47.520;19.186;2024-03-02T05:50:31;29.98;;;20.30;;
49101;SDS011;34913;47.520;19.186;2024-03-02T05:52:56;36.50;;;21.77;;
49101;SDS011;34913;47.520;19.186;2024-03-02T05:55:22;36.17;;;22.55;;
49101;SDS011;34913;47.520;19.186;2024-03-02T05:57:47;34.78;;;21.48;;
49101;SDS011;34913;47.520;19.186;2024-03-02T06:00:24;32.05;;;20.40;;
49101;SDS011;34913;47.520;19.186;2024-03-02T06:02:49;33.65;;;21.45;;
49101;SDS011;34913;47.520;19.186;2024-03-02T06:05:15;33.05;;;21.08;;
49101;SDS011;34913;47.520;19.186;2024-03-02T06:07:42;35.85;;;22.35;;
49101;SDS011;34913;47.520;19.186;2024-03-02T06:10:08;33.42;;;21.85;;
49101;SDS011;34913;47.520;19.186;2024-03-02T06:12:34;35.67;;;22.08;;
49101;SDS011;34913;47.520;19.186;2024-03-02T06:14:59;37.45;;;22.65;;
49101;SDS011;34913;47.520;19.186;2024-03-02T06:17:25;34.35;;;22.30;;
49101;SDS011;34913;47.520;19.186;2024-03-02T06:19:50;35.45;;;21.85;;
49101;SDS011;34913;47.520;19.186;2024-03-02T06:22:16;34.47;;;22.05;;
49101;SDS011;34913;47.520;19.186;2024-03-02T06:24:41;37.75;;;23.25;;
49101;SDS011;34913;47.520;19.186;2024-03-02T06:27:07;37.97;;;22.52;;
49101;SDS011;34913;47.520;19.186;2024-03-02T06:29:32;36.63;;;22.27;;
49101;SDS011;34913;47.520;19.186;2024-03-02T06:31:58;39.85;;;22.75;;
49101;SDS011;34913;47.520;19.186;2024-03-02T06:34:24;37.72;;;23.15;;
49101;SDS011;34913;47.520;19.186;2024-03-02T06:36:50;36.08;;;22.50;;
49101;SDS011;34913;47.520;19.186;2024-03-02T06:39:15;34.60;;;21.73;;
49101;SDS011;34913;47.520;19.186;2024-03-02T06:41:40;35.28;;;22.33;;
49101;SDS011;34913;47.520;19.186;2024-03-02T06:44:07;37.67;;;22.15;;
49101;SDS011;34913;47.520;19.186;2024-03-02T06:46:33;37.55;;;23.33;;
49101;SDS011;34913;47.520;19.186;2024-03-02T06:48:58;41.35;;;22.65;;
49101;SDS011;34913;47.520;19.186;2024-03-02T06:51:23;33.55;;;21.60;;
49101;SDS011;34913;47.520;19.186;2024-03-02T06:53:49;34.65;;;21.92;;
49101;SDS011;34913;47.520;19.186;2024-03-02T06:56:14;38.22;;;23.63;;
49101;SDS011;34913;47.520;19.186;2024-03-02T06:58:39;37.58;;;23.45;;
49101;SDS011;34913;47.520;19.186;2024-03-02T07:01:05;37.53;;;23.23;;
49101;SDS011;34913;47.520;19.186;2024-03-02T07:03:30;37.22;;;23.00;;
49101;SDS011;34913;47.520;19.186;2024-03-02T07:05:55;42.65;;;24.73;;
49101;SDS011;34913;47.520;19.186;2024-03-02T07:08:22;37.10;;;23.50;;
49101;SDS011;34913;47.520;19.186;2024-03-02T07:10:47;39.60;;;22.80;;
49101;SDS011;34913;47.520;19.186;2024-03-02T07:13:12;36.05;;;22.50;;
49101;SDS011;34913;47.520;19.186;2024-03-02T07:15:38;35.85;;;22.30;;
49101;SDS011;34913;47.520;19.186;2024-03-02T07:18:32;40.70;;;23.00;;
49101;SDS011;34913;47.520;19.186;2024-03-02T07:21:10;33.72;;;21.85;;
49101;SDS011;34913;47.520;19.186;2024-03-02T07:23:37;35.33;;;22.60;;
49101;SDS011;34913;47.520;19.186;2024-03-02T07:26:03;36.63;;;22.90;;
49101;SDS011;34913;47.520;19.186;2024-03-02T07:28:28;38.50;;;22.67;;
49101;SDS011;34913;47.520;19.186;2024-03-02T07:31:00;35.17;;;23.27;;
49101;SDS011;34913;47.520;19.186;2024-03-02T07:33:27;41.85;;;24.15;;
49101;SDS011;34913;47.520;19.186;2024-03-02T07:35:53;37.97;;;24.80;;
49101;SDS011;34913;47.520;19.186;2024-03-02T07:38:19;38.05;;;24.55;;
49101;SDS011;34913;47.520;19.186;2024-03-02T07:40:44;36.42;;;23.00;;
49101;SDS011;34913;47.520;19.186;2024-03-02T07:43:10;39.67;;;24.75;;
49101;SDS011;34913;47.520;19.186;2024-03-02T07:45:36;41.40;;;25.25;;
49101;SDS011;34913;47.520;19.186;2024-03-02T07:48:01;39.72;;;25.65;;
49101;SDS011;34913;47.520;19.186;2024-03-02T07:50:29;38.03;;;24.20;;
49101;SDS011;34913;47.520;19.186;2024-03-02T07:52:55;37.80;;;24.30;;
49101;SDS011;34913;47.520;19.186;2024-03-02T07:55:20;37.33;;;24.00;;
49101;SDS011;34913;47.520;19.186;2024-03-02T07:57:46;36.05;;;24.23;;
49101;SDS011;34913;47.520;19.186;2024-03-02T08:00:11;39.50;;;23.90;;
49101;SDS011;34913;47.520;19.186;2024-03-02T08:02:37;36.55;;;23.88;;
49101;SDS011;34913;47.520;19.186;2024-03-02T08:05:02;37.92;;;23.67;;
49101;SDS011;34913;47.520;19.186;2024-03-02T08:07:28;38.08;;;23.85;;
49101;SDS011;34913;47.520;19.186;2024-03-02T08:09:53;33.95;;;23.05;;
49101;SDS011;34913;47.520;19.186;2024-03-02T08:12:18;34.83;;;22.42;;
49101;SDS011;34913;47.520;19.186;2024-03-02T08:14:44;35.45;;;23.00;;
49101;SDS011;34913;47.520;19.186;2024-03-02T08:17:10;33.80;;;23.13;;
49101;SDS011;34913;47.520;19.186;2024-03-02T08:19:36;36.85;;;24.08;;
49101;SDS011;34913;47.520;19.186;2024-03-02T08:22:02;36.42;;;23.15;;
49101;SDS011;34913;47.520;19.186;2024-03-02T08:24:28;34.78;;;22.67;;
49101;SDS011;34913;47.520;19.186;2024-03-02T08:26:53;37.25;;;22.90;;
49101;SDS011;34913;47.520;19.186;2024-03-02T08:29:19;37.63;;;24.02;;
49101;SDS011;34913;47.520;19.186;2024-03-02T08:31:44;36.97;;;22.90;;
49101;SDS011;34913;47.520;19.186;2024-03-02T08:34:09;36.97;;;23.05;;
49101;SDS011;34913;47.520;19.186;2024-03-02T08:36:34;36.33;;;23.42;;
49101;SDS011;34913;47.520;19.186;2024-03-02T08:39:01;37.05;;;23.83;;
49101;SDS011;34913;47.520;19.186;2024-03-02T08:41:27;38.08;;;23.98;;
49101;SDS011;34913;47.520;19.186;2024-03-02T08:43:52;37.08;;;23.95;;
49101;SDS011;34913;47.520;19.186;2024-03-02T08:46:17;32.72;;;22.20;;
49101;SDS011;34913;47.520;19.186;2024-03-02T08:48:43;34.00;;;22.90;;
49101;SDS011;34913;47.520;19.186;2024-03-02T08:51:08;35.20;;;23.08;;
49101;SDS011;34913;47.520;19.186;2024-03-02T08:53:35;37.05;;;25.02;;
49101;SDS011;34913;47.520;19.186;2024-03-02T08:56:01;40.55;;;25.42;;
49101;SDS011;34913;47.520;19.186;2024-03-02T08:58:26;34.95;;;23.50;;
49101;SDS011;34913;47.520;19.186;2024-03-02T09:00:51;35.60;;;23.60;;
49101;SDS011;34913;47.520;19.186;2024-03-02T09:03:17;33.47;;;22.35;;
49101;SDS011;34913;47.520;19.186;2024-03-02T09:05:42;35.58;;;22.65;;
49101;SDS011;34913;47.520;19.186;2024-03-02T09:08:08;31.50;;;21.48;;
49101;SDS011;34913;47.520;19.186;2024-03-02T09:10:33;33.60;;;22.23;;
49101;SDS011;34913;47.520;19.186;2024-03-02T09:12:59;31.77;;;21.25;;
49101;SDS011;34913;47.520;19.186;2024-03-02T09:15:24;36.08;;;23.08;;
49101;SDS011;34913;47.520;19.186;2024-03-02T09:17:50;35.63;;;21.98;;
49101;SDS011;34913;47.520;19.186;2024-03-02T09:20:15;28.95;;;20.10;;
49101;SDS011;34913;47.520;19.186;2024-03-02T09:22:41;27.55;;;19.77;;
49101;SDS011;34913;47.520;19.186;2024-03-02T09:25:07;28.55;;;19.70;;
49101;SDS011;34913;47.520;19.186;2024-03-02T09:27:35;26.10;;;19.30;;
49101;SDS011;34913;47.520;19.186;2024-03-02T09:30:04;27.17;;;19.25;;
49101;SDS011;34913;47.520;19.186;2024-03-02T09:32:32;28.15;;;19.75;;
49101;SDS011;34913;47.520;19.186;2024-03-02T09:34:57;26.45;;;18.02;;
49101;SDS011;34913;47.520;19.186;2024-03-02T09:37:23;24.38;;;17.83;;
49101;SDS011;34913;47.520;19.186;2024-03-02T09:39:48;24.70;;;17.30;;
49101;SDS011;34913;47.520;19.186;2024-03-02T09:42:14;25.05;;;17.35;;
49101;SDS011;34913;47.520;19.186;2024-03-02T09:44:39;24.58;;;17.42;;
49101;SDS011;34913;47.520;19.186;2024-03-02T09:47:06;22.92;;;17.50;;
49101;SDS011;34913;47.520;19.186;2024-03-02T09:49:32;24.30;;;16.67;;
49101;SDS011;34913;47.520;19.186;2024-03-02T09:51:57;21.73;;;15.60;;
49101;SDS011;34913;47.520;19.186;2024-03-02T09:54:22;22.15;;;16.40;;
49101;SDS011;34913;47.520;19.186;2024-03-02T09:56:48;20.52;;;15.57;;
49101;SDS011;34913;47.520;19.186;2024-03-02T09:59:14;19.88;;;14.55;;
49101;SDS011;34913;47.520;19.186;2024-03-02T10:01:55;21.90;;;15.25;;
49101;SDS011;34913;47.520;19.186;2024-03-02T10:04:32;19.80;;;15.07;;
49101;SDS011;34913;47.520;19.186;2024-03-02T10:07:17;18.55;;;14.68;;
49101;SDS011;34913;47.520;19.186;2024-03-02T10:09:44;18.98;;;14.18;;
49101;SDS011;34913;47.520;19.186;2024-03-02T10:12:14;20.67;;;16.25;;
49101;SDS011;34913;47.520;19.186;2024-03-02T10:14:41;20.58;;;16.65;;
49101;SDS011;34913;47.520;19.186;2024-03-02T10:17:08;19.95;;;15.80;;
49101;SDS011;34913;47.520;19.186;2024-03-02T10:19:35;20.63;;;15.65;;
49101;SDS011;34913;47.520;19.186;2024-03-02T10:22:02;17.75;;;13.75;;
49101;SDS011;34913;47.520;19.186;2024-03-02T10:24:34;19.17;;;13.95;;
49101;SDS011;34913;47.520;19.186;2024-03-02T10:27:01;17.08;;;13.48;;
49101;SDS011;34913;47.520;19.186;2024-03-02T10:29:29;16.90;;;12.55;;
49101;SDS011;34913;47.520;19.186;2024-03-02T10:31:55;15.07;;;12.80;;
49101;SDS011;34913;47.520;19.186;2024-03-02T10:34:21;15.23;;;11.55;;
49101;SDS011;34913;47.520;19.186;2024-03-02T10:36:46;15.73;;;12.27;;
49101;SDS011;34913;47.520;19.186;2024-03-02T10:39:12;15.27;;;11.90;;
49101;SDS011;34913;47.520;19.186;2024-03-02T10:41:39;15.77;;;11.48;;
49101;SDS011;34913;47.520;19.186;2024-03-02T10:44:06;16.02;;;11.93;;
49101;SDS011;34913;47.520;19.186;2024-03-02T10:46:33;15.18;;;11.82;;
49101;SDS011;34913;47.520;19.186;2024-03-02T10:49:00;15.18;;;11.05;;
49101;SDS011;34913;47.520;19.186;2024-03-02T10:51:30;16.20;;;11.57;;
49101;SDS011;34913;47.520;19.186;2024-03-02T10:54:00;14.05;;;11.10;;
49101;SDS011;34913;47.520;19.186;2024-03-02T10:56:30;14.00;;;11.38;;
49101;SDS011;34913;47.520;19.186;2024-03-02T11:01:29;15.43;;;11.85;;
49101;SDS011;34913;47.520;19.186;2024-03-02T11:03:56;16.60;;;12.82;;
49101;SDS011;34913;47.520;19.186;2024-03-02T11:06:23;17.67;;;13.73;;
49101;SDS011;34913;47.520;19.186;2024-03-02T11:08:51;17.20;;;13.65;;
49101;SDS011;34913;47.520;19.186;2024-03-02T11:13:52;14.98;;;11.68;;
49101;SDS011;34913;47.520;19.186;2024-03-02T11:16:26;16.05;;;12.65;;
49101;SDS011;34913;47.520;19.186;2024-03-02T11:19:04;15.60;;;12.07;;
49101;SDS011;34913;47.520;19.186;2024-03-02T11:21:34;16.17;;;12.70;;
49101;SDS011;34913;47.520;19.186;2024-03-02T11:24:22;17.05;;;12.90;;
49101;SDS011;34913;47.520;19.186;2024-03-02T11:26:46;17.30;;;12.90;;
49101;SDS011;34913;47.520;19.186;2024-03-02T11:29:38;17.02;;;13.07;;
49101;SDS011;34913;47.520;19.186;2024-03-02T11:32:03;14.38;;;12.30;;
49101;SDS011;34913;47.520;19.186;2024-03-02T11:34:31;16.67;;;13.02;;
49101;SDS011;34913;47.520;19.186;2024-03-02T11:36:57;17.42;;;12.80;;
49101;SDS011;34913;47.520;19.186;2024-03-02T11:39:24;18.13;;;13.77;;
49101;SDS011;34913;47.520;19.186;2024-03-02T11:41:50;20.63;;;14.63;;
49101;SDS011;34913;47.520;19.186;2024-03-02T11:44:16;19.55;;;14.73;;
49101;SDS011;34913;47.520;19.186;2024-03-02T11:46:42;16.00;;;12.18;;
49101;SDS011;34913;47.520;19.186;2024-03-02T11:49:13;16.20;;;11.88;;
49101;SDS011;34913;47.520;19.186;2024-03-02T11:51:39;16.33;;;12.60;;
49101;SDS011;34913;47.520;19.186;2024-03-02T11:54:25;17.02;;;13.82;;
49101;SDS011;34913;47.520;19.186;2024-03-02T11:56:52;15.65;;;13.00;;
49101;SDS011;34913;47.520;19.186;2024-03-02T11:59:19;14.63;;;12.70;;
49101;SDS011;34913;47.520;19.186;2024-03-02T12:01:45;15.13;;;12.52;;
49101;SDS011;34913;47.520;19.186;2024-03-02T12:04:11;17.85;;;13.85;;
49101;SDS011;34913;47.520;19.186;2024-03-02T12:06:36;15.13;;;12.35;;
49101;SDS011;34913;47.520;19.186;2024-03-02T12:09:02;13.27;;;10.98;;
49101;SDS011;34913;47.520;19.186;2024-03-02T12:11:28;14.57;;;11.55;;
49101;SDS011;34913;47.520;19.186;2024-03-02T12:13:54;14.50;;;11.55;;
49101;SDS011;34913;47.520;19.186;2024-03-02T12:16:24;14.55;;;12.02;;
49101;SDS011;34913;47.520;19.186;2024-03-02T12:18:50;15.93;;;12.10;;
49101;SDS011;34913;47.520;19.186;2024-03-02T12:21:15;17.08;;;13.13;;
49101;SDS011;34913;47.520;19.186;2024-03-02T12:23:41;18.20;;;13.30;;
49101;SDS011;34913;47.520;19.186;2024-03-02T12:26:06;17.13;;;12.57;;
49101;SDS011;34913;47.520;19.186;2024-03-02T12:28:32;17.23;;;13.25;;
49101;SDS011;34913;47.520;19.186;2024-03-02T12:30:59;15.63;;;12.70;;
49101;SDS011;34913;47.520;19.186;2024-03-02T12:33:24;16.85;;;12.85;;
49101;SDS011;34913;47.520;19.186;2024-03-02T12:35:49;16.25;;;12.95;;
49101;SDS011;34913;47.520;19.186;2024-03-02T12:38:15;17.63;;;13.05;;
49101;SDS011;34913;47.520;19.186;2024-03-02T12:40:40;17.25;;;14.00;;
49101;SDS011;34913;47.520;19.186;2024-03-02T12:43:06;18.33;;;13.50;;
49101;SDS011;34913;47.520;19.186;2024-03-02T12:45:31;17.67;;;13.20;;
49101;SDS011;34913;47.520;19.186;2024-03-02T12:47:57;21.45;;;14.05;;
49101;SDS011;34913;47.520;19.186;2024-03-02T12:50:24;18.60;;;14.65;;
49101;SDS011;34913;47.520;19.186;2024-03-02T12:52:53;15.23;;;11.50;;
49101;SDS011;34913;47.520;19.186;2024-03-02T12:55:22;18.63;;;12.45;;
49101;SDS011;34913;47.520;19.186;2024-03-02T12:57:49;15.55;;;10.77;;
49101;SDS011;34913;47.520;19.186;2024-03-02T13:00:17;17.23;;;11.95;;
49101;SDS011;34913;47.520;19.186;2024-03-02T13:02:45;17.05;;;11.18;;
49101;SDS011;34913;47.520;19.186;2024-03-02T13:05:11;23.98;;;12.00;;
49101;SDS011;34913;47.520;19.186;2024-03-02T13:07:39;15.00;;;11.20;;
49101;SDS011;34913;47.520;19.186;2024-03-02T13:10:06;18.80;;;10.85;;
49101;SDS011;34913;47.520;19.186;2024-03-02T13:12:34;16.27;;;11.38;;
49101;SDS011;34913;47.520;19.186;2024-03-02T13:15:01;17.50;;;11.30;;
49101;SDS011;34913;47.520;19.186;2024-03-02T13:17:28;18.23;;;10.90;;
49101;SDS011;34913;47.520;19.186;2024-03-02T13:19:57;18.45;;;11.27;;
49101;SDS011;34913;47.520;19.186;2024-03-02T13:22:26;17.23;;;10.80;;
49101;SDS011;34913;47.520;19.186;2024-03-02T13:24:52;17.48;;;10.68;;
49101;SDS011;34913;47.520;19.186;2024-03-02T13:27:21;19.63;;;11.35;;
49101;SDS011;34913;47.520;19.186;2024-03-02T13:29:47;20.23;;;11.98;;
49101;SDS011;34913;47.520;19.186;2024-03-02T13:32:13;18.23;;;12.05;;
49101;SDS011;34913;47.520;19.186;2024-03-02T13:34:39;19.35;;;12.27;;
49101;SDS011;34913;47.520;19.186;2024-03-02T13:37:05;19.83;;;11.18;;
49101;SDS011;34913;47.520;19.186;2024-03-02T13:39:30;20.52;;;12.15;;
49101;SDS011;34913;47.520;19.186;2024-03-02T13:42:00;21.40;;;12.30;;
49101;SDS011;34913;47.520;19.186;2024-03-02T13:44:30;20.50;;;12.90;;
49101;SDS011;34913;47.520;19.186;2024-03-02T13:46:56;15.73;;;10.85;;
49101;SDS011;34913;47.520;19.186;2024-03-02T13:49:23;18.80;;;11.82;;
49101;SDS011;34913;47.520;19.186;2024-03-02T13:51:48;18.90;;;11.43;;
49101;SDS011;34913;47.520;19.186;2024-03-02T13:54:14;20.17;;;12.30;;
49101;SDS011;34913;47.520;19.186;2024-03-02T13:56:39;19.23;;;12.30;;
49101;SDS011;34913;47.520;19.186;2024-03-02T13:59:05;20.50;;;12.38;;
49101;SDS011;34913;47.520;19.186;2024-03-02T14:01:31;21.15;;;11.45;;
49101;SDS011;34913;47.520;19.186;2024-03-02T14:03:57;20.25;;;11.88;;
49101;SDS011;34913;47.520;19.186;2024-03-02T14:06:23;19.25;;;11.65;;
49101;SDS011;34913;47.520;19.186;2024-03-02T14:08:48;18.67;;;12.18;;
49101;SDS011;34913;47.520;19.186;2024-03-02T14:11:14;20.23;;;12.23;;
49101;SDS011;34913;47.520;19.186;2024-03-02T14:13:41;19.15;;;12.07;;
49101;SDS011;34913;47.520;19.186;2024-03-02T14:16:06;17.05;;;11.27;;
49101;SDS011;34913;47.520;19.186;2024-03-02T14:18:32;18.00;;;10.75;;